Time;durP1;ratioP1;P1;durP2;ratioP2;P2;SDS_P1;SDS_P2;PMS_P1;PMS_P2;Temp;Humidity;BMP_temperature;BMP_pressure;BME280_temperature;BME280_humidity;BME280_pressure;Samples;Min_cycle;Max_cycle;Signal;HPM_P1;HPM_P2
2022/04/20 00:01:33;;;;;;;25.70;15.38;;;;;;;;;;5024105;28;20561;-41
2022/04/20 00:03:59;;;;;;;20.85;13.05;;;;;;;;;;5025133;28;20465;-39
2022/04/20 00:06:25;;;;;;;18.27;12.40;;;;;;;;;;5023873;28;20180;-40
2022/04/20 00:08:51;;;;;;;18.15;13.10;;;;;;;;;;5024781;28;20044;-44
2022/04/20 00:11:17;;;;;;;26.25;17.35;;;;;;;;;;5023733;28;20031;-38
2022/04/20 00:13:43;;;;;;;25.30;16.98;;;;;;;;;;5023537;28;20096;-44
2022/04/20 00:16:09;;;;;;;22.02;15.82;;;;;;;;;;5023726;28;20036;-39
2022/04/20 00:18:36;;;;;;;22.95;15.77;;;;;;;;;;5023885;28;20043;-40
2022/04/20 00:21:02;;;;;;;28.73;18.27;;;;;;;;;;5023603;28;20031;-38
2022/04/20 00:23:28;;;;;;;25.80;16.98;;;;;;;;;;5024906;28;20125;-39
2022/04/20 00:25:54;;;;;;;21.63;14.25;;;;;;;;;;5035459;28;20025;-43
2022/04/20 00:28:20;;;;;;;25.02;16.52;;;;;;;;;;5035417;28;20083;-41
2022/04/20 00:30:46;;;;;;;31.45;19.33;;;;;;;;;;5035599;28;20029;-40
2022/04/20 00:33:12;;;;;;;25.55;16.42;;;;;;;;;;5035580;28;20428;-40
2022/04/20 00:35:39;;;;;;;16.45;12.30;;;;;;;;;;5035581;28;20057;-37
2022/04/20 00:38:08;;;;;;;17.30;12.48;;;;;;;;;;5035326;28;20022;-42
2022/04/20 00:40:34;;;;;;;23.90;15.88;;;;;;;;;;5035239;28;20041;-39
2022/04/20 00:43:00;;;;;;;20.63;12.95;;;;;;;;;;5035256;28;20025;-40
2022/04/20 00:45:27;;;;;;;25.20;15.63;;;;;;;;;;5035209;28;20118;-39
2022/04/20 00:47:54;;;;;;;19.95;13.65;;;;;;;;;;5035633;28;20535;-39
2022/04/20 00:50:22;;;;;;;17.40;12.73;;;;;;;;;;5034983;28;20056;-41
2022/04/20 00:52:48;;;;;;;19.10;12.77;;;;;;;;;;5035068;28;20018;-40
2022/04/20 00:55:14;;;;;;;20.33;12.77;;;;;;;;;;5035248;28;20036;-41
2022/04/20 00:57:40;;;;;;;24.55;15.63;;;;;;;;;;5034171;28;20098;-41
2022/04/20 01:00:07;;;;;;;15.95;12.27;;;;;;;;;;5034906;28;20041;-43
2022/04/20 01:02:33;;;;;;;16.35;11.52;;;;;;;;;;5034907;28;20470;-40
2022/04/20 01:04:59;;;;;;;16.83;12.35;;;;;;;;;;5034855;28;20481;-41
2022/04/20 01:07:25;;;;;;;18.85;13.43;;;;;;;;;;5035041;28;20083;-39
2022/04/20 01:09:51;;;;;;;21.77;14.82;;;;;;;;;;5034753;28;20028;-40
2022/04/20 01:12:19;;;;;;;18.63;12.38;;;;;;;;;;5034623;28;20496;-39
2022/04/20 01:14:45;;;;;;;21.83;12.80;;;;;;;;;;5034732;28;20029;-41
2022/04/20 01:17:11;;;;;;;17.98;12.73;;;;;;;;;;5034746;28;20385;-42
2022/04/20 01:19:41;;;;;;;16.88;12.68;;;;;;;;;;5034584;28;20025;-40
2022/04/20 01:22:08;;;;;;;16.65;12.45;;;;;;;;;;5034627;28;20028;-42
2022/04/20 01:24:35;;;;;;;18.60;12.35;;;;;;;;;;5034505;28;20048;-40
2022/04/20 01:27:02;;;;;;;21.80;13.35;;;;;;;;;;5034260;28;20049;-42
2022/04/20 01:29:28;;;;;;;19.98;13.85;;;;;;;;;;5034199;28;20025;-40
2022/04/20 01:31:57;;;;;;;17.70;12.93;;;;;;;;;;5034370;28;20079;-38
2022/04/20 01:34:23;;;;;;;19.52;13.25;;;;;;;;;;5034303;28;20032;-39
2022/04/20 01:36:49;;;;;;;21.00;13.48;;;;;;;;;;5034420;28;20021;-38
2022/04/20 01:39:18;;;;;;;20.73;13.77;;;;;;;;;;5034298;28;20117;-39
2022/04/20 01:41:44;;;;;;;18.73;13.15;;;;;;;;;;5033920;28;20044;-38
2022/04/20 01:44:13;;;;;;;21.30;15.50;;;;;;;;;;5034124;28;20025;-40
2022/04/20 01:46:39;;;;;;;34.15;21.45;;;;;;;;;;5034234;28;20048;-41
2022/04/20 01:49:05;;;;;;;26.55;18.13;;;;;;;;;;5033933;28;20050;-39
2022/04/20 01:54:32;;;;;;;19.75;13.02;;;;;;;;;;5031902;28;20067;-39
2022/04/20 01:56:58;;;;;;;19.05;13.18;;;;;;;;;;5031908;28;20501;-44
2022/04/20 01:59:24;;;;;;;15.23;11.55;;;;;;;;;;5031557;28;20099;-40
2022/04/20 02:04:35;;;;;;;16.80;11.95;;;;;;;;;;5031869;28;20033;-40
2022/04/20 02:07:01;;;;;;;18.45;10.90;;;;;;;;;;5031616;28;20037;-40
2022/04/20 02:09:29;;;;;;;12.68;10.20;;;;;;;;;;5031727;28;20037;-45
2022/04/20 02:11:55;;;;;;;14.75;10.15;;;;;;;;;;5031471;28;20492;-41
2022/04/20 02:14:21;;;;;;;13.27;9.80;;;;;;;;;;5031546;28;20156;-46
2022/04/20 02:16:47;;;;;;;12.82;9.95;;;;;;;;;;5031576;28;20389;-39
2022/04/20 02:19:14;;;;;;;15.07;9.90;;;;;;;;;;5031530;28;20026;-44
2022/04/20 02:21:40;;;;;;;14.75;10.85;;;;;;;;;;5031088;28;20110;-39
2022/04/20 02:24:07;;;;;;;14.00;10.25;;;;;;;;;;5031426;28;20492;-42
2022/04/20 02:26:33;;;;;;;13.40;9.77;;;;;;;;;;5031386;28;20025;-41
2022/04/20 02:28:59;;;;;;;15.35;10.18;;;;;;;;;;5032619;28;20044;-43
2022/04/20 02:31:27;;;;;;;14.00;9.93;;;;;;;;;;5033416;28;20040;-45
2022/04/20 02:33:53;;;;;;;12.35;9.35;;;;;;;;;;5033448;28;20458;-39
2022/04/20 02:36:20;;;;;;;16.15;9.80;;;;;;;;;;5033349;28;20034;-39
2022/04/20 02:38:46;;;;;;;13.20;10.18;;;;;;;;;;5033444;28;20110;-45
2022/04/20 02:41:12;;;;;;;12.63;8.93;;;;;;;;;;5033088;28;20076;-40
2022/04/20 02:43:38;;;;;;;15.07;9.75;;;;;;;;;;5033291;28;20025;-41
2022/04/20 02:46:04;;;;;;;14.90;10.02;;;;;;;;;;5033300;28;20041;-40
2022/04/20 02:48:30;;;;;;;14.52;10.32;;;;;;;;;;5032955;28;20412;-41
2022/04/20 02:50:57;;;;;;;13.38;9.43;;;;;;;;;;5032836;28;20029;-40
2022/04/20 02:53:23;;;;;;;15.52;11.13;;;;;;;;;;5033132;28;20370;-43
2022/04/20 02:55:49;;;;;;;13.23;10.23;;;;;;;;;;5033070;28;20057;-42
2022/04/20 02:58:15;;;;;;;15.98;10.00;;;;;;;;;;5033089;28;20089;-43
2022/04/20 03:00:43;;;;;;;15.73;10.35;;;;;;;;;;5033136;28;20401;-40
2022/04/20 03:03:10;;;;;;;16.67;9.48;;;;;;;;;;5033169;28;20025;-43
2022/04/20 03:05:36;;;;;;;14.65;9.95;;;;;;;;;;5032734;28;20022;-40
2022/04/20 03:08:02;;;;;;;15.15;10.50;;;;;;;;;;5032954;28;20022;-39
2022/04/20 03:10:28;;;;;;;13.90;10.35;;;;;;;;;;5032815;28;20115;-38
2022/04/20 03:12:54;;;;;;;15.65;11.93;;;;;;;;;;5032792;28;20470;-40
2022/04/20 03:15:20;;;;;;;16.40;11.77;;;;;;;;;;5033069;28;20057;-39
2022/04/20 03:17:46;;;;;;;19.77;13.60;;;;;;;;;;5032938;28;20026;-41
2022/04/20 03:20:12;;;;;;;28.35;15.88;;;;;;;;;;5033374;28;20033;-38
2022/04/20 03:22:39;;;;;;;20.58;14.93;;;;;;;;;;5036744;28;20029;-38
2022/04/20 03:25:05;;;;;;;25.38;15.10;;;;;;;;;;5036541;28;20026;-38
2022/04/20 03:27:31;;;;;;;29.70;16.50;;;;;;;;;;5036385;28;20022;-38
2022/04/20 03:29:57;;;;;;;34.92;18.08;;;;;;;;;;5036415;28;20068;-40
2022/04/20 03:32:23;;;;;;;28.33;16.85;;;;;;;;;;5036505;28;20022;-40
2022/04/20 03:34:50;;;;;;;33.17;16.35;;;;;;;;;;5036597;28;20026;-41
2022/04/20 03:37:16;;;;;;;28.10;16.45;;;;;;;;;;5036391;28;20029;-42
2022/04/20 03:39:42;;;;;;;30.02;16.90;;;;;;;;;;5036349;28;20029;-40
2022/04/20 03:42:09;;;;;;;30.88;18.02;;;;;;;;;;5036193;28;20033;-40
2022/04/20 03:44:36;;;;;;;47.63;28.15;;;;;;;;;;5036151;28;20063;-39
2022/04/20 03:47:03;;;;;;;33.20;21.08;;;;;;;;;;5036166;28;20018;-40
2022/04/20 03:49:29;;;;;;;32.10;20.58;;;;;;;;;;5035981;28;20049;-42
2022/04/20 03:51:55;;;;;;;27.90;18.15;;;;;;;;;;5036160;28;20025;-43
2022/04/20 03:54:21;;;;;;;31.75;19.25;;;;;;;;;;5035853;28;20028;-40
2022/04/20 03:57:03;;;;;;;35.00;21.98;;;;;;;;;;5035955;28;20025;-42
2022/04/20 03:59:29;;;;;;;27.95;18.75;;;;;;;;;;5035699;28;20116;-40
2022/04/20 04:01:55;;;;;;;38.38;23.20;;;;;;;;;;5035843;28;20061;-41
2022/04/20 04:04:22;;;;;;;26.33;17.67;;;;;;;;;;5035658;28;20017;-40
2022/04/20 04:06:48;;;;;;;25.80;17.65;;;;;;;;;;5035750;28;20022;-39
2022/04/20 04:09:15;;;;;;;37.15;22.73;;;;;;;;;;5036026;28;20026;-44
2022/04/20 04:11:41;;;;;;;27.80;17.70;;;;;;;;;;5034400;28;20030;-43
2022/04/20 04:14:07;;;;;;;24.88;17.55;;;;;;;;;;5035682;28;20018;-42
2022/04/20 04:16:36;;;;;;;30.65;18.38;;;;;;;;;;5035437;28;20033;-40
2022/04/20 04:19:06;;;;;;;27.92;19.75;;;;;;;;;;5035421;28;20031;-44
2022/04/20 04:21:35;;;;;;;23.55;17.80;;;;;;;;;;5035486;28;20037;-45
2022/04/20 04:24:01;;;;;;;26.85;18.02;;;;;;;;;;5035774;28;20033;-44
2022/04/20 04:26:28;;;;;;;28.60;19.48;;;;;;;;;;5035545;28;20473;-43
2022/04/20 04:28:54;;;;;;;25.73;18.77;;;;;;;;;;5034117;28;20034;-42
2022/04/20 04:31:22;;;;;;;23.65;17.85;;;;;;;;;;5035394;28;20072;-44
2022/04/20 04:33:49;;;;;;;22.80;17.40;;;;;;;;;;5035466;28;20049;-44
2022/04/20 04:36:15;;;;;;;27.13;17.00;;;;;;;;;;5035646;28;20079;-43
2022/04/20 04:38:41;;;;;;;25.90;18.13;;;;;;;;;;5035518;28;20026;-41
2022/04/20 04:41:07;;;;;;;28.70;19.27;;;;;;;;;;5035497;28;20037;-42
2022/04/20 04:43:33;;;;;;;28.08;18.15;;;;;;;;;;5035482;28;20017;-43
2022/04/20 04:48:48;;;;;;;28.60;18.25;;;;;;;;;;5035246;28;20044;-41
2022/04/20 04:51:15;;;;;;;23.50;17.90;;;;;;;;;;5035367;28;20381;-42
2022/04/20 04:53:41;;;;;;;28.75;17.80;;;;;;;;;;5035066;28;20014;-42
2022/04/20 04:56:09;;;;;;;22.80;17.38;;;;;;;;;;5035298;28;20509;-42
2022/04/20 04:58:36;;;;;;;26.35;17.98;;;;;;;;;;5035141;28;20041;-40
2022/04/20 05:01:02;;;;;;;24.67;18.27;;;;;;;;;;5034878;28;20052;-42
2022/04/20 05:03:28;;;;;;;25.67;18.20;;;;;;;;;;5034963;28;20025;-44
2022/04/20 05:05:54;;;;;;;25.55;19.08;;;;;;;;;;5035161;28;20044;-40
2022/04/20 05:08:23;;;;;;;25.23;18.13;;;;;;;;;;5034739;28;20028;-43
2022/04/20 05:10:49;;;;;;;30.05;20.90;;;;;;;;;;5034709;28;20021;-41
2022/04/20 05:13:16;;;;;;;40.30;26.65;;;;;;;;;;5034612;28;20392;-42
2022/04/20 05:15:42;;;;;;;35.00;23.42;;;;;;;;;;5035012;28;20076;-41
2022/04/20 05:18:08;;;;;;;26.63;20.23;;;;;;;;;;5034594;28;20025;-40
2022/04/20 05:20:34;;;;;;;25.80;18.40;;;;;;;;;;5034350;28;20095;-41
2022/04/20 05:23:00;;;;;;;22.65;17.23;;;;;;;;;;5034671;28;20064;-39
2022/04/20 05:25:26;;;;;;;25.05;16.88;;;;;;;;;;5034462;28;20029;-39
2022/04/20 05:27:52;;;;;;;26.02;17.20;;;;;;;;;;5034277;28;20025;-42
2022/04/20 05:30:19;;;;;;;26.38;17.67;;;;;;;;;;5034426;28;20100;-41
2022/04/20 05:32:45;;;;;;;20.55;16.27;;;;;;;;;;5034397;28;20096;-43
2022/04/20 05:35:11;;;;;;;26.30;18.15;;;;;;;;;;5034400;28;20108;-43
2022/04/20 05:43:09;;;;;;;25.95;18.63;;;;;;;;;;5033581;28;20044;-40
2022/04/20 05:45:36;;;;;;;23.38;18.52;;;;;;;;;;5049278;28;20417;-41
2022/04/20 05:48:03;;;;;;;23.33;17.90;;;;;;;;;;5034123;28;20075;-43
2022/04/20 05:50:32;;;;;;;24.85;17.88;;;;;;;;;;5033915;28;20056;-42
2022/04/20 05:53:00;;;;;;;31.45;21.65;;;;;;;;;;5034032;28;20025;-42
2022/04/20 05:55:26;;;;;;;37.60;24.45;;;;;;;;;;5034115;28;20151;-41
2022/04/20 05:57:53;;;;;;;30.25;20.45;;;;;;;;;;5033601;28;20104;-43
2022/04/20 06:00:19;;;;;;;28.30;19.70;;;;;;;;;;5033936;28;20068;-43
2022/04/20 06:02:45;;;;;;;72.13;40.80;;;;;;;;;;5033880;28;20025;-43
2022/04/20 06:05:11;;;;;;;60.20;35.75;;;;;;;;;;5033814;28;20025;-43
2022/04/20 06:07:37;;;;;;;59.05;36.33;;;;;;;;;;5033701;28;20036;-43
2022/04/20 06:10:04;;;;;;;39.25;25.17;;;;;;;;;;5033749;28;20022;-42
2022/04/20 06:12:30;;;;;;;30.17;19.48;;;;;;;;;;5033537;28;20508;-42
2022/04/20 06:14:58;;;;;;;28.20;18.83;;;;;;;;;;5033578;28;20056;-43
2022/04/20 06:17:24;;;;;;;31.33;20.08;;;;;;;;;;5033883;28;20489;-40
2022/04/20 06:19:50;;;;;;;32.28;21.23;;;;;;;;;;5033658;28;20386;-41
2022/04/20 06:22:16;;;;;;;31.77;20.25;;;;;;;;;;5033531;28;20028;-44
2022/04/20 06:24:42;;;;;;;49.22;30.38;;;;;;;;;;5033444;28;20013;-41
2022/04/20 06:27:09;;;;;;;38.88;25.27;;;;;;;;;;5033435;28;20052;-42
2022/04/20 06:29:35;;;;;;;29.50;19.67;;;;;;;;;;5033545;28;20394;-44
2022/04/20 06:32:05;;;;;;;25.55;17.17;;;;;;;;;;5033499;28;20091;-42
2022/04/20 06:34:31;;;;;;;22.27;15.23;;;;;;;;;;5033476;28;20436;-41
2022/04/20 06:36:57;;;;;;;21.52;14.50;;;;;;;;;;5033417;28;20037;-42
2022/04/20 06:39:23;;;;;;;42.25;25.27;;;;;;;;;;5033232;28;20018;-40
2022/04/20 06:41:51;;;;;;;35.53;22.77;;;;;;;;;;5033195;28;20565;-39
2022/04/20 06:44:19;;;;;;;33.90;21.60;;;;;;;;;;5033122;28;20026;-40
2022/04/20 06:46:45;;;;;;;25.92;18.20;;;;;;;;;;5033413;28;20409;-41
2022/04/20 06:49:12;;;;;;;22.65;15.60;;;;;;;;;;5033002;28;20115;-41
2022/04/20 06:59:56;;;;;;;37.20;23.50;;;;;;;;;;5037483;28;20504;-43
2022/04/20 07:02:22;;;;;;;19.30;13.43;;;;;;;;;;5037081;28;20043;-41
2022/04/20 07:04:48;;;;;;;18.58;12.00;;;;;;;;;;5037148;28;20473;-40
2022/04/20 07:07:14;;;;;;;18.85;11.98;;;;;;;;;;5037365;28;20076;-41
2022/04/20 07:09:40;;;;;;;15.70;11.70;;;;;;;;;;5051965;28;20033;-42
2022/04/20 07:12:06;;;;;;;25.42;15.15;;;;;;;;;;5037042;28;20401;-42
2022/04/20 07:14:32;;;;;;;39.88;22.52;;;;;;;;;;5036918;28;20075;-42
2022/04/20 07:16:59;;;;;;;59.60;32.53;;;;;;;;;;5036901;28;20017;-41
2022/04/20 07:19:25;;;;;;;36.58;22.15;;;;;;;;;;5036740;28;20026;-41
2022/04/20 07:21:51;;;;;;;23.00;14.02;;;;;;;;;;5036635;28;20080;-45
2022/04/20 07:24:17;;;;;;;30.95;19.75;;;;;;;;;;5036573;28;20025;-41
2022/04/20 07:26:43;;;;;;;39.08;21.77;;;;;;;;;;5036878;28;20196;-45
2022/04/20 07:29:09;;;;;;;39.53;22.08;;;;;;;;;;5036620;28;20033;-42
2022/04/20 07:31:35;;;;;;;27.23;18.00;;;;;;;;;;5036728;28;20021;-43
2022/04/20 07:34:01;;;;;;;25.70;15.93;;;;;;;;;;5036529;28;20504;-43
2022/04/20 07:36:28;;;;;;;22.33;13.23;;;;;;;;;;5037061;28;20427;-42
2022/04/20 07:38:54;;;;;;;19.88;13.75;;;;;;;;;;5036371;28;20031;-42
2022/04/20 07:41:20;;;;;;;20.73;14.02;;;;;;;;;;5036279;28;20045;-44
2022/04/20 07:43:49;;;;;;;18.98;13.00;;;;;;;;;;5036683;28;20041;-41
2022/04/20 07:46:17;;;;;;;24.13;15.10;;;;;;;;;;5036486;28;20030;-41
2022/04/20 07:48:44;;;;;;;33.78;21.00;;;;;;;;;;5035907;28;20041;-41
2022/04/20 07:51:10;;;;;;;23.30;15.10;;;;;;;;;;5034892;28;20029;-42
2022/04/20 07:53:36;;;;;;;23.00;13.60;;;;;;;;;;5034850;28;20023;-40
2022/04/20 07:56:02;;;;;;;30.38;19.58;;;;;;;;;;5034887;28;20029;-39
2022/04/20 07:58:28;;;;;;;22.77;15.60;;;;;;;;;;5034998;28;20033;-40
2022/04/20 08:00:55;;;;;;;24.42;15.10;;;;;;;;;;5034759;28;20436;-41
2022/04/20 08:03:21;;;;;;;23.00;14.82;;;;;;;;;;5034856;28;20124;-43
2022/04/20 08:05:48;;;;;;;19.90;12.52;;;;;;;;;;5034357;28;20026;-43
2022/04/20 08:08:16;;;;;;;34.50;19.90;;;;;;;;;;5034715;28;20517;-38
2022/04/20 08:10:42;;;;;;;38.60;20.42;;;;;;;;;;5034903;28;20114;-38
2022/04/20 08:15:54;;;;;;;36.58;20.13;;;;;;;;;;5034989;28;20160;-40
2022/04/20 08:18:21;;;;;;;32.78;20.05;;;;;;;;;;5034523;28;20030;-39
2022/04/20 08:20:47;;;;;;;23.83;12.45;;;;;;;;;;5034440;28;20033;-40
2022/04/20 08:23:13;;;;;;;23.75;14.88;;;;;;;;;;5034569;28;20075;-39
2022/04/20 08:25:39;;;;;;;17.75;11.68;;;;;;;;;;5034389;28;20028;-40
2022/04/20 08:28:06;;;;;;;23.58;12.68;;;;;;;;;;5048842;28;20029;-40
2022/04/20 08:30:33;;;;;;;16.50;11.18;;;;;;;;;;5053781;28;20036;-40
2022/04/20 08:32:59;;;;;;;16.40;9.55;;;;;;;;;;5053685;28;20546;-40
2022/04/20 08:35:25;;;;;;;14.73;9.07;;;;;;;;;;5053748;28;20017;-44
2022/04/20 08:37:51;;;;;;;15.98;10.82;;;;;;;;;;5053713;28;20027;-43
2022/04/20 08:40:17;;;;;;;13.13;9.60;;;;;;;;;;5053751;28;20040;-41
2022/04/20 08:42:43;;;;;;;11.80;8.38;;;;;;;;;;5053188;28;20115;-42
2022/04/20 08:45:10;;;;;;;9.85;7.68;;;;;;;;;;5053644;28;20025;-42
2022/04/20 08:47:37;;;;;;;9.82;8.20;;;;;;;;;;5053390;28;20024;-41
2022/04/20 08:50:04;;;;;;;10.73;8.30;;;;;;;;;;5046037;28;198701;-40
2022/04/20 08:52:37;;;;;;;12.02;7.78;;;;;;;;;;5054258;28;20029;-45
2022/04/20 08:55:04;;;;;;;12.93;8.05;;;;;;;;;;5052124;28;20020;-39
2022/04/20 08:57:31;;;;;;;13.13;8.68;;;;;;;;;;5054364;28;20032;-43
2022/04/20 08:59:58;;;;;;;10.20;8.20;;;;;;;;;;5054322;28;20492;-44
2022/04/20 09:02:24;;;;;;;10.00;7.35;;;;;;;;;;5054147;28;20044;-44
2022/04/20 09:04:51;;;;;;;11.57;8.30;;;;;;;;;;5054235;28;20385;-44
2022/04/20 09:07:18;;;;;;;8.35;7.28;;;;;;;;;;5054207;28;20021;-43
2022/04/20 09:09:44;;;;;;;13.40;8.82;;;;;;;;;;5054399;28;20455;-40
2022/04/20 09:12:14;;;;;;;11.70;8.82;;;;;;;;;;5053792;28;20053;-40
2022/04/20 09:14:41;;;;;;;11.57;8.48;;;;;;;;;;5053799;28;20056;-41
2022/04/20 09:17:11;;;;;;;11.38;7.38;;;;;;;;;;5053994;28;20487;-40
2022/04/20 09:19:37;;;;;;;11.98;7.93;;;;;;;;;;5053223;28;20037;-40
2022/04/20 09:22:16;;;;;;;9.68;7.32;;;;;;;;;;5053732;28;20029;-40
2022/04/20 09:24:59;;;;;;;9.43;7.43;;;;;;;;;;5052336;28;20025;-40
2022/04/20 09:27:28;;;;;;;9.38;7.25;;;;;;;;;;5052671;28;20455;-44
2022/04/20 09:29:55;;;;;;;9.18;6.93;;;;;;;;;;5054596;28;20036;-40
2022/04/20 09:32:50;;;;;;;8.90;6.93;;;;;;;;;;5054216;28;20032;-41
2022/04/20 09:35:18;;;;;;;12.23;7.95;;;;;;;;;;5032104;28;20033;-40
2022/04/20 09:37:45;;;;;;;9.00;6.53;;;;;;;;;;5031990;28;20033;-43
2022/04/20 09:40:12;;;;;;;16.45;8.13;;;;;;;;;;5031655;28;20567;-44
2022/04/20 09:42:39;;;;;;;8.07;7.00;;;;;;;;;;5031299;28;20044;-41
2022/04/20 09:45:06;;;;;;;21.33;13.30;;;;;;;;;;5031208;28;20448;-43
2022/04/20 09:50:22;;;;;;;9.48;7.05;;;;;;;;;;5012026;28;20048;-44
2022/04/20 09:52:49;;;;;;;8.43;7.00;;;;;;;;;;5011976;28;20037;-43
2022/04/20 09:55:36;;;;;;;8.13;6.60;;;;;;;;;;4995483;28;20037;-42
2022/04/20 09:58:18;;;;;;;12.40;7.57;;;;;;;;;;5011717;28;20157;-43
2022/04/20 10:00:49;;;;;;;9.23;6.78;;;;;;;;;;5016672;28;20048;-44
2022/04/20 10:03:26;;;;;;;11.95;7.07;;;;;;;;;;5031801;28;20018;-44
2022/04/20 10:05:52;;;;;;;9.02;6.45;;;;;;;;;;5031567;28;20386;-44
2022/04/20 10:08:19;;;;;;;8.73;7.03;;;;;;;;;;5031547;28;20025;-44
2022/04/20 10:10:47;;;;;;;8.20;7.03;;;;;;;;;;5034193;28;20033;-45
2022/04/20 10:13:16;;;;;;;12.48;6.93;;;;;;;;;;5053344;28;20025;-43
2022/04/20 10:18:29;;;;;;;10.85;6.35;;;;;;;;;;5053308;28;20043;-42
2022/04/20 10:20:56;;;;;;;7.60;6.10;;;;;;;;;;5053526;28;20023;-42
2022/04/20 10:23:23;;;;;;;12.43;7.35;;;;;;;;;;5052700;28;20039;-43
2022/04/20 10:25:51;;;;;;;8.18;6.13;;;;;;;;;;5052827;28;20092;-43
2022/04/20 10:28:31;;;;;;;7.70;5.57;;;;;;;;;;5053060;28;20108;-41
2022/04/20 10:31:18;;;;;;;8.25;6.18;;;;;;;;;;5050445;28;20029;-40
2022/04/20 10:33:48;;;;;;;8.65;6.72;;;;;;;;;;5053059;28;20489;-41
2022/04/20 10:36:18;;;;;;;7.28;5.80;;;;;;;;;;5053110;28;20036;-44
2022/04/20 10:38:48;;;;;;;8.70;5.70;;;;;;;;;;5053213;28;20104;-44
2022/04/20 10:41:19;;;;;;;6.78;5.40;;;;;;;;;;5052912;28;20037;-44
2022/04/20 10:43:45;;;;;;;8.80;6.20;;;;;;;;;;5052980;28;20021;-44
2022/04/20 10:46:11;;;;;;;8.95;6.10;;;;;;;;;;5052462;28;20051;-41
2022/04/20 10:48:44;;;;;;;8.93;6.10;;;;;;;;;;5052485;28;20036;-43
2022/04/20 10:51:19;;;;;;;8.27;6.22;;;;;;;;;;5052540;28;20025;-43
2022/04/20 10:53:47;;;;;;;9.32;6.68;;;;;;;;;;5046052;28;20084;-39
2022/04/20 10:56:14;;;;;;;8.15;6.38;;;;;;;;;;5022630;28;20480;-41
2022/04/20 10:58:53;;;;;;;7.68;6.35;;;;;;;;;;5020481;28;20362;-46
2022/04/20 11:01:22;;;;;;;7.60;6.18;;;;;;;;;;5020420;28;20137;-51
2022/04/20 11:03:52;;;;;;;8.68;6.85;;;;;;;;;;5020959;28;20022;-45
2022/04/20 11:06:18;;;;;;;12.37;7.47;;;;;;;;;;5020723;28;20359;-46
2022/04/20 11:08:44;;;;;;;10.63;8.10;;;;;;;;;;5020798;28;20556;-47
2022/04/20 11:19:54;;;;;;;12.55;9.45;;;;;;;;;;5053097;28;20036;-39
2022/04/20 11:22:22;;;;;;;15.52;8.57;;;;;;;;;;5052847;28;20068;-42
2022/04/20 11:25:06;;;;;;;13.90;8.98;;;;;;;;;;5052784;28;20032;-43
2022/04/20 11:27:35;;;;;;;11.65;9.05;;;;;;;;;;5052803;28;20084;-41
2022/04/20 11:30:03;;;;;;;8.35;7.35;;;;;;;;;;5052923;28;20185;-44
2022/04/20 11:32:31;;;;;;;9.05;7.97;;;;;;;;;;5052887;28;20365;-40
2022/04/20 11:35:07;;;;;;;8.38;6.82;;;;;;;;;;5052632;28;20024;-43
2022/04/20 11:37:34;;;;;;;9.02;6.85;;;;;;;;;;5052732;28;20041;-44
2022/04/20 11:40:00;;;;;;;9.05;6.95;;;;;;;;;;5052479;28;20028;-43
2022/04/20 11:42:26;;;;;;;8.10;6.32;;;;;;;;;;5055082;28;20078;-44
2022/04/20 11:44:52;;;;;;;8.05;6.72;;;;;;;;;;5056119;28;20025;-44
2022/04/20 11:47:21;;;;;;;9.82;6.93;;;;;;;;;;5056438;28;20098;-44
2022/04/20 11:49:50;;;;;;;9.30;7.00;;;;;;;;;;5056019;28;20077;-46
2022/04/20 11:52:18;;;;;;;8.35;6.20;;;;;;;;;;5055784;28;20079;-46
2022/04/20 11:54:46;;;;;;;7.63;6.00;;;;;;;;;;5055666;28;20480;-41
2022/04/20 11:57:13;;;;;;;11.63;6.65;;;;;;;;;;5056558;28;20044;-42
2022/04/20 11:59:43;;;;;;;8.73;6.53;;;;;;;;;;5056124;28;20530;-42
2022/04/20 12:02:12;;;;;;;9.35;5.95;;;;;;;;;;5055781;28;20041;-40
2022/04/20 12:04:39;;;;;;;7.20;6.15;;;;;;;;;;5056045;28;20385;-41
2022/04/20 12:07:05;;;;;;;8.68;6.80;;;;;;;;;;5055781;28;20021;-44
2022/04/20 12:09:33;;;;;;;8.82;6.45;;;;;;;;;;5055577;28;20021;-39
2022/04/20 12:12:03;;;;;;;9.82;7.35;;;;;;;;;;5055655;28;20079;-42
2022/04/20 12:14:34;;;;;;;8.60;6.60;;;;;;;;;;5055812;28;20534;-42
2022/04/20 12:17:02;;;;;;;8.68;7.03;;;;;;;;;;5055245;28;20033;-39
2022/04/20 12:19:29;;;;;;;8.98;7.13;;;;;;;;;;5055552;28;20419;-40
2022/04/20 12:21:56;;;;;;;7.45;6.65;;;;;;;;;;5055522;28;20453;-39
2022/04/20 12:24:26;;;;;;;7.15;5.75;;;;;;;;;;5054711;28;20033;-43
2022/04/20 12:26:53;;;;;;;8.93;6.45;;;;;;;;;;5055451;28;20532;-41
2022/04/20 12:29:21;;;;;;;7.63;5.82;;;;;;;;;;5055389;28;20465;-41
2022/04/20 12:31:49;;;;;;;7.88;5.68;;;;;;;;;;5055601;28;20033;-44
2022/04/20 12:34:16;;;;;;;9.85;7.00;;;;;;;;;;5055240;28;20025;-44
2022/04/20 12:36:54;;;;;;;9.70;6.80;;;;;;;;;;5055334;28;20029;-44
2022/04/20 12:39:27;;;;;;;11.48;6.65;;;;;;;;;;5055176;28;20028;-44
2022/04/20 12:41:57;;;;;;;7.65;6.80;;;;;;;;;;5054602;28;20040;-44
2022/04/20 12:44:46;;;;;;;9.63;7.63;;;;;;;;;;5054826;28;20508;-41
2022/04/20 12:47:15;;;;;;;7.18;6.03;;;;;;;;;;5055153;28;20057;-43
2022/04/20 12:49:43;;;;;;;8.93;6.57;;;;;;;;;;5054723;28;20378;-42
2022/04/20 12:52:12;;;;;;;9.60;6.40;;;;;;;;;;5053988;28;20106;-42
2022/04/20 12:54:38;;;;;;;7.07;6.15;;;;;;;;;;5053600;28;20112;-44
2022/04/20 13:03:02;;;;;;;10.43;7.45;;;;;;;;;;5044673;28;20052;-43
2022/04/20 13:05:28;;;;;;;9.48;8.40;;;;;;;;;;5051479;28;20035;-44
2022/04/20 13:07:56;;;;;;;13.38;9.52;;;;;;;;;;5053993;28;20025;-42
2022/04/20 13:10:23;;;;;;;13.68;7.60;;;;;;;;;;5054170;28;20059;-42
2022/04/20 13:12:49;;;;;;;16.92;11.63;;;;;;;;;;5053100;28;20079;-40
2022/04/20 13:15:15;;;;;;;27.85;18.40;;;;;;;;;;5053004;28;20361;-40
2022/04/20 13:17:41;;;;;;;32.25;20.27;;;;;;;;;;5051926;28;20029;-42
2022/04/20 13:20:07;;;;;;;14.95;9.13;;;;;;;;;;5053376;28;20392;-41
2022/04/20 13:22:34;;;;;;;12.38;8.68;;;;;;;;;;5054078;28;20452;-40
2022/04/20 13:27:54;;;;;;;17.35;12.30;;;;;;;;;;5052194;28;20491;-41
2022/04/20 13:30:20;;;;;;;19.10;12.38;;;;;;;;;;5053472;28;20104;-40
2022/04/20 13:32:46;;;;;;;12.65;9.43;;;;;;;;;;5053479;28;20021;-41
2022/04/20 13:35:13;;;;;;;17.83;10.55;;;;;;;;;;5054090;28;20025;-40
2022/04/20 13:37:39;;;;;;;12.82;8.77;;;;;;;;;;5053559;28;20021;-40
2022/04/20 13:40:08;;;;;;;13.82;8.95;;;;;;;;;;5054209;28;20431;-40
2022/04/20 13:42:34;;;;;;;10.80;7.32;;;;;;;;;;5054143;28;20041;-42
2022/04/20 13:45:00;;;;;;;11.98;9.20;;;;;;;;;;5054081;28;20029;-41
2022/04/20 13:47:29;;;;;;;14.10;9.23;;;;;;;;;;5054080;28;20388;-42
2022/04/20 13:49:55;;;;;;;13.10;7.55;;;;;;;;;;5053779;28;20538;-40
2022/04/20 13:52:21;;;;;;;13.32;7.65;;;;;;;;;;5054166;28;20107;-45
2022/04/20 13:54:49;;;;;;;13.90;8.18;;;;;;;;;;5053787;28;20456;-43
2022/04/20 13:57:15;;;;;;;16.33;8.68;;;;;;;;;;5053894;28;20036;-41
2022/04/20 13:59:43;;;;;;;16.88;8.80;;;;;;;;;;5053834;28;20033;-40
2022/04/20 14:02:10;;;;;;;24.55;11.23;;;;;;;;;;5053743;28;20040;-39
2022/04/20 14:04:36;;;;;;;14.32;8.48;;;;;;;;;;5053346;28;20031;-45
2022/04/20 14:07:05;;;;;;;17.83;9.73;;;;;;;;;;5053693;28;20028;-43
2022/04/20 14:09:31;;;;;;;21.55;10.52;;;;;;;;;;5053640;28;20390;-43
2022/04/20 14:11:58;;;;;;;21.25;10.20;;;;;;;;;;5053608;28;20033;-44
2022/04/20 14:14:24;;;;;;;27.88;19.23;;;;;;;;;;5053485;28;20024;-45
2022/04/20 14:16:50;;;;;;;18.77;9.30;;;;;;;;;;5052103;28;20091;-44
2022/04/20 14:19:17;;;;;;;16.85;10.10;;;;;;;;;;5052342;28;20025;-44
2022/04/20 14:21:43;;;;;;;12.25;8.18;;;;;;;;;;5053403;28;20040;-43
2022/04/20 14:24:09;;;;;;;8.30;6.40;;;;;;;;;;5053451;28;20498;-45
2022/04/20 14:32:12;;;;;;;12.63;9.52;;;;;;;;;;5053666;28;20087;-44
2022/04/20 14:34:38;;;;;;;12.30;7.97;;;;;;;;;;5053443;28;20033;-44
2022/04/20 14:37:05;;;;;;;8.02;6.70;;;;;;;;;;5053106;28;20477;-44
2022/04/20 14:39:31;;;;;;;8.45;6.47;;;;;;;;;;5053197;28;20021;-44
2022/04/20 14:41:57;;;;;;;8.98;7.13;;;;;;;;;;5053467;28;20123;-44
2022/04/20 14:44:24;;;;;;;11.25;6.85;;;;;;;;;;5053168;28;20472;-44
2022/04/20 14:46:50;;;;;;;9.95;6.90;;;;;;;;;;5053188;28;20396;-43
2022/04/20 14:49:17;;;;;;;10.52;7.60;;;;;;;;;;5052899;28;20052;-43
2022/04/20 14:51:44;;;;;;;8.80;6.30;;;;;;;;;;5053125;28;20040;-43
2022/04/20 14:54:11;;;;;;;8.20;6.70;;;;;;;;;;5053330;28;20017;-44
2022/04/20 14:56:37;;;;;;;8.75;6.15;;;;;;;;;;5053179;28;20445;-41
2022/04/20 14:59:03;;;;;;;8.98;6.65;;;;;;;;;;5052935;28;20036;-42
2022/04/20 15:01:30;;;;;;;15.27;7.10;;;;;;;;;;5053067;28;20033;-46
2022/04/20 15:03:59;;;;;;;10.00;6.75;;;;;;;;;;5053044;28;20017;-42
2022/04/20 15:06:25;;;;;;;8.98;6.20;;;;;;;;;;5053584;28;20472;-43
2022/04/20 15:08:53;;;;;;;8.45;6.68;;;;;;;;;;5052995;28;20028;-45
2022/04/20 15:11:19;;;;;;;7.57;5.72;;;;;;;;;;5051712;28;20481;-46
2022/04/20 15:13:48;;;;;;;10.82;5.68;;;;;;;;;;5052877;28;20108;-42
2022/04/20 15:16:21;;;;;;;9.13;5.40;;;;;;;;;;5053587;28;20480;-44
2022/04/20 15:18:47;;;;;;;7.18;5.57;;;;;;;;;;5056862;28;20021;-44
2022/04/20 15:21:13;;;;;;;8.25;5.47;;;;;;;;;;5056702;28;20036;-42